createdAt,value
2018-02-09T00:01:05.974Z,63.65
2018-02-09T00:03:34.431Z,71.80
2018-02-09T00:06:02.859Z,75.15
2018-02-09T00:08:31.263Z,61.60
2018-02-09T00:10:59.673Z,63.00
2018-02-09T00:13:28.124Z,71.53
2018-02-09T00:15:56.588Z,56.45
2018-02-09T00:18:25.051Z,54.63
2018-02-09T00:20:53.444Z,63.15
2018-02-09T00:23:21.877Z,60.58
2018-02-09T00:25:50.290Z,55.38
2018-02-09T00:28:18.677Z,65.65
2018-02-09T00:30:47.165Z,57.53
2018-02-09T00:33:15.670Z,64.10
2018-02-09T00:35:44.206Z,71.45
2018-02-09T00:38:12.698Z,63.00
2018-02-09T00:40:41.096Z,61.97
2018-02-09T00:43:09.533Z,64.07
2018-02-09T00:45:37.969Z,70.22
2018-02-09T00:48:06.459Z,50.65
2018-02-09T00:50:34.871Z,60.90
2018-02-09T00:53:03.273Z,58.45
2018-02-09T00:55:31.694Z,53.20
2018-02-09T00:58:00.119Z,56.25
2018-02-09T01:00:28.694Z,50.45
2018-02-09T01:02:57.107Z,61.22
2018-02-09T01:05:25.529Z,60.25
2018-02-09T01:07:53.964Z,46.72
2018-02-09T01:10:22.373Z,59.38
2018-02-09T01:12:50.822Z,57.90
2018-02-09T01:15:19.235Z,55.33
2018-02-09T01:17:47.795Z,46.47
2018-02-09T01:20:16.285Z,58.90
2018-02-09T01:22:44.783Z,56.92
2018-02-09T01:25:13.180Z,50.33
2018-02-09T01:27:41.694Z,50.65
2018-02-09T01:30:10.101Z,42.13
2018-02-09T01:32:38.514Z,47.25
2018-02-09T01:35:06.984Z,49.25
2018-02-09T01:37:35.408Z,49.30
2018-02-09T01:40:03.807Z,44.28
2018-02-09T01:42:32.303Z,41.45
2018-02-09T01:45:00.713Z,48.80
2018-02-09T01:47:29.158Z,42.62
2018-02-09T01:50:09.418Z,39.45
2018-02-09T01:52:37.864Z,37.25
2018-02-09T01:55:06.356Z,44.05
2018-02-09T01:57:34.754Z,42.10
2018-02-09T02:00:03.225Z,34.10
2018-02-09T02:02:31.618Z,46.92
2018-02-09T02:05:00.221Z,44.28
2018-02-09T02:07:28.618Z,46.22
2018-02-09T02:09:57.130Z,42.55
2018-02-09T02:12:25.522Z,52.90
2018-02-09T02:14:53.914Z,41.60
2018-02-09T02:17:22.372Z,40.97
2018-02-09T02:19:50.753Z,36.67
2018-02-09T02:22:19.137Z,39.63
2018-02-09T02:24:47.546Z,32.00
2018-02-09T02:27:16.009Z,37.35
2018-02-09T02:29:44.461Z,28.02
2018-02-09T02:32:12.952Z,28.35
2018-02-09T02:34:41.356Z,29.75
2018-02-09T02:37:09.755Z,27.55
2018-02-09T02:39:38.156Z,38.35
2018-02-09T02:42:06.592Z,35.63
2018-02-09T02:44:35.061Z,33.10
2018-02-09T02:47:03.535Z,29.58
2018-02-09T02:49:31.938Z,29.75
2018-02-09T02:52:00.352Z,32.92
2018-02-09T02:54:28.772Z,29.60
2018-02-09T02:56:57.150Z,30.33
2018-02-09T02:59:25.625Z,28.50
2018-02-09T03:01:54.036Z,23.45
2018-02-09T03:04:22.422Z,25.50
2018-02-09T03:06:50.914Z,27.83
2018-02-09T03:09:19.318Z,33.70
2018-02-09T03:11:47.757Z,30.50
2018-02-09T03:14:16.195Z,28.90
2018-02-09T03:16:44.742Z,29.63
2018-02-09T03:19:13.130Z,27.25
2018-02-09T03:21:41.533Z,25.15
2018-02-09T03:24:09.921Z,21.50
2018-02-09T03:26:38.303Z,27.52
2018-02-09T03:29:07.050Z,17.40
2018-02-09T03:31:35.547Z,19.52
2018-02-09T03:34:03.961Z,24.60
2018-02-09T03:36:32.350Z,27.05
2018-02-09T03:39:00.741Z,23.90
2018-02-09T03:41:29.177Z,22.67
2018-02-09T03:43:57.691Z,23.58
2018-02-09T03:46:26.070Z,24.40
2018-02-09T03:48:54.470Z,24.80
2018-02-09T03:51:22.868Z,23.70
2018-02-09T03:53:51.261Z,21.30
2018-02-09T03:56:19.664Z,21.30
2018-02-09T03:58:48.199Z,21.87
2018-02-09T04:01:16.654Z,19.65
2018-02-09T04:03:45.105Z,14.65
2018-02-09T04:06:13.503Z,16.12
2018-02-09T04:08:41.881Z,16.02
2018-02-09T04:11:10.277Z,14.70
2018-02-09T04:13:38.733Z,17.42
2018-02-09T04:16:07.132Z,14.07
2018-02-09T04:18:35.514Z,14.13
2018-02-09T04:21:04.001Z,15.02
2018-02-09T04:23:32.398Z,12.60
2018-02-09T04:26:00.827Z,13.30
2018-02-09T04:28:29.201Z,9.95
2018-02-09T04:30:57.758Z,12.27
2018-02-09T04:33:26.130Z,11.95
2018-02-09T04:35:54.522Z,9.93
2018-02-09T04:38:22.903Z,9.40
2018-02-09T04:40:51.290Z,11.12
2018-02-09T04:43:19.830Z,12.27
2018-02-09T04:45:48.228Z,15.82
2018-02-09T04:48:16.612Z,10.95
2018-02-09T04:50:45.026Z,9.23
2018-02-09T04:53:13.410Z,11.23
2018-02-09T04:55:41.954Z,10.82
2018-02-09T04:58:10.351Z,10.60
2018-02-09T05:00:38.836Z,15.75
2018-02-09T05:03:07.220Z,19.00
2018-02-09T05:05:35.605Z,18.45
2018-02-09T05:08:04.079Z,19.12
2018-02-09T05:10:32.491Z,18.52
2018-02-09T05:13:00.887Z,30.17
2018-02-09T05:15:29.268Z,30.77
2018-02-09T05:17:57.671Z,24.77
2018-02-09T05:20:26.143Z,29.83
2018-02-09T05:22:54.521Z,22.48
2018-02-09T05:25:22.932Z,30.00
2018-02-09T05:27:51.334Z,32.38
2018-02-09T05:30:19.722Z,25.58
2018-02-09T05:32:48.145Z,33.95
2018-02-09T05:35:16.543Z,40.03
2018-02-09T05:37:45.092Z,41.65
2018-02-09T05:40:13.492Z,45.90
2018-02-09T05:42:41.889Z,51.28
2018-02-09T05:45:10.281Z,43.65
2018-02-09T05:47:38.770Z,49.33
2018-02-09T05:50:07.315Z,47.08
2018-02-09T05:52:35.775Z,53.97
2018-02-09T05:55:04.181Z,45.67
2018-02-09T05:57:32.581Z,56.90
2018-02-09T06:00:00.976Z,56.50
2018-02-09T06:02:29.431Z,61.10
2018-02-09T06:04:57.887Z,78.95
2018-02-09T06:07:26.289Z,77.90
2018-02-09T06:09:54.697Z,82.95
2018-02-09T06:12:23.116Z,85.47
2018-02-09T06:14:51.532Z,85.93
2018-02-09T06:17:19.938Z,79.05
2018-02-09T06:19:48.409Z,87.57
2018-02-09T06:22:16.814Z,72.37
2018-02-09T06:24:45.286Z,83.62
2018-02-09T06:27:13.696Z,93.90
2018-02-09T06:29:42.108Z,107.57
2018-02-09T06:32:10.561Z,91.15
2018-02-09T06:34:38.970Z,91.80
2018-02-09T06:37:07.369Z,102.57
2018-02-09T06:39:35.737Z,92.35
2018-02-09T06:42:04.127Z,118.75
2018-02-09T06:44:32.594Z,109.72
2018-02-09T06:47:01.006Z,128.00
2018-02-09T06:49:29.410Z,129.05
2018-02-09T06:51:57.827Z,134.55
2018-02-09T06:54:26.277Z,167.40
2018-02-09T06:56:54.754Z,174.95
2018-02-09T06:59:23.147Z,174.55
2018-02-09T07:01:51.557Z,164.45
2018-02-09T07:04:19.953Z,163.25
2018-02-09T07:06:48.345Z,174.27
2018-02-09T07:09:16.807Z,174.18
2018-02-09T07:11:45.205Z,178.80
2018-02-09T07:14:13.613Z,169.30
2018-02-09T07:16:42.007Z,162.55
2018-02-09T07:19:10.414Z,171.73
2018-02-09T07:21:38.937Z,173.85
2018-02-09T07:24:07.331Z,152.62
2018-02-09T07:26:35.745Z,168.30
2018-02-09T07:29:04.146Z,150.38
2018-02-09T07:31:32.582Z,162.30
2018-02-09T07:34:01.043Z,159.12
2018-02-09T07:36:29.445Z,152.65
2018-02-09T07:38:57.875Z,138.52
2018-02-09T07:41:26.280Z,160.90
2018-02-09T07:43:54.688Z,152.05
2018-02-09T07:46:23.168Z,156.63
2018-02-09T07:48:51.570Z,162.05
2018-02-09T07:51:19.954Z,145.43
2018-02-09T07:53:48.364Z,156.85
2018-02-09T07:56:16.766Z,163.02
2018-02-09T07:58:45.210Z,136.05
2018-02-09T08:01:13.620Z,149.25
2018-02-09T08:03:42.023Z,137.18
2018-02-09T08:06:10.481Z,128.98
2018-02-09T08:08:38.856Z,123.68
2018-02-09T08:11:07.341Z,130.57
2018-02-09T08:13:35.750Z,137.62
2018-02-09T08:16:04.138Z,141.82
2018-02-09T08:18:32.567Z,131.20
2018-02-09T08:21:00.970Z,126.10
2018-02-09T08:23:29.532Z,110.07
2018-02-09T08:25:57.935Z,116.35
2018-02-09T08:28:26.333Z,122.50
2018-02-09T08:30:54.783Z,139.37
2018-02-09T08:33:23.263Z,113.03
2018-02-09T08:35:51.691Z,123.80
2018-02-09T08:38:20.075Z,118.40
2018-02-09T08:40:48.840Z,115.88
2018-02-09T08:43:17.539Z,122.15
2018-02-09T08:45:46.083Z,121.50
2018-02-09T08:48:14.495Z,122.80
2018-02-09T08:50:42.893Z,109.10
2018-02-09T08:53:11.379Z,115.25
2018-02-09T08:55:39.859Z,111.70
2018-02-09T08:58:08.296Z,107.05
2018-02-09T09:00:36.718Z,108.87
2018-02-09T09:03:05.122Z,107.18
2018-02-09T09:05:33.570Z,99.85
2018-02-09T09:08:01.969Z,102.25
2018-02-09T09:10:30.439Z,101.65
2018-02-09T09:12:58.847Z,94.15
2018-02-09T09:15:27.279Z,105.35
2018-02-09T09:17:55.665Z,94.53
2018-02-09T09:20:24.051Z,101.45
2018-02-09T09:22:52.616Z,104.18
2018-02-09T09:25:21.018Z,94.93
2018-02-09T09:27:49.438Z,93.97
2018-02-09T09:30:17.839Z,90.05
2018-02-09T09:32:46.246Z,82.60
2018-02-09T09:35:15.118Z,87.65
2018-02-09T09:37:43.494Z,90.72
2018-02-09T09:40:11.913Z,98.28
2018-02-09T09:42:40.296Z,97.00
2018-02-09T09:45:08.700Z,98.15
2018-02-09T09:47:37.150Z,88.03
2018-02-09T09:50:05.572Z,88.12
2018-02-09T09:52:34.070Z,84.75
2018-02-09T09:55:02.469Z,88.20
2018-02-09T09:57:30.945Z,95.18
2018-02-09T09:59:59.348Z,82.10
2018-02-09T10:02:41.299Z,82.22
2018-02-09T10:05:09.713Z,76.37
2018-02-09T10:07:38.122Z,85.20
2018-02-09T10:10:06.827Z,80.30
2018-02-09T10:12:35.425Z,80.23
2018-02-09T10:15:03.961Z,81.40
2018-02-09T10:17:32.374Z,78.27
2018-02-09T10:20:00.769Z,77.10
2018-02-09T10:22:29.181Z,77.77
2018-02-09T10:24:57.576Z,74.63
2018-02-09T10:27:26.038Z,80.50
2018-02-09T10:29:54.498Z,73.30
2018-02-09T10:32:22.894Z,67.50
2018-02-09T10:34:51.320Z,78.27
2018-02-09T10:37:19.755Z,77.10
2018-02-09T10:39:48.219Z,72.43
2018-02-09T10:42:16.620Z,70.00
2018-02-09T10:44:45.047Z,71.50
2018-02-09T10:47:13.496Z,63.93
2018-02-09T10:49:41.899Z,73.40
2018-02-09T10:52:10.343Z,70.33
2018-02-09T10:54:38.911Z,75.13
2018-02-09T10:57:07.359Z,71.60
2018-02-09T10:59:35.843Z,72.17
2018-02-09T11:02:04.238Z,76.33
2018-02-09T11:04:32.639Z,80.05
2018-02-09T11:07:01.180Z,76.33
2018-02-09T11:09:31.495Z,85.57
2018-02-09T11:12:01.879Z,73.80
2018-02-09T11:14:30.286Z,79.80
2018-02-09T11:16:58.914Z,86.00
2018-02-09T11:19:27.394Z,82.55
2018-02-09T11:21:56.003Z,83.97
2018-02-09T11:24:24.571Z,74.65
2018-02-09T11:26:53.395Z,90.62
2018-02-09T11:29:22.220Z,80.25
2018-02-09T11:31:51.048Z,88.72
2018-02-09T11:34:20.040Z,76.35
2018-02-09T11:36:48.702Z,77.32
2018-02-09T11:39:17.387Z,88.97
2018-02-09T11:41:46.156Z,91.05
2018-02-09T11:44:14.850Z,84.85
2018-02-09T11:46:44.029Z,76.37
2018-02-09T11:49:12.884Z,82.03
2018-02-09T11:51:41.828Z,86.22
2018-02-09T11:54:10.946Z,82.03
2018-02-09T11:56:39.426Z,78.22
2018-02-09T11:59:08.048Z,82.75
2018-02-09T12:01:36.745Z,83.35
2018-02-09T12:04:05.334Z,84.82
2018-02-09T12:06:34.050Z,76.68
2018-02-09T12:09:02.925Z,83.68
2018-02-09T12:11:31.792Z,79.07
2018-02-09T12:14:00.506Z,73.40
2018-02-09T12:16:29.162Z,76.43
2018-02-09T12:18:57.892Z,79.07
2018-02-09T12:21:26.719Z,69.20
2018-02-09T12:23:55.356Z,72.75
2018-02-09T12:26:24.401Z,73.50
2018-02-09T12:28:52.880Z,71.32
2018-02-09T12:31:21.581Z,72.87
2018-02-09T12:33:50.224Z,68.00
2018-02-09T12:36:19.011Z,78.20
2018-02-09T12:38:48.485Z,75.32
2018-02-09T12:41:17.076Z,78.85
2018-02-09T12:43:45.475Z,76.72
2018-02-09T12:46:13.881Z,80.43
2018-02-09T12:48:42.442Z,74.18
2018-02-09T12:51:10.830Z,70.07
2018-02-09T12:53:39.320Z,67.70
2018-02-09T12:56:07.726Z,69.97
2018-02-09T12:58:36.139Z,73.80
2018-02-09T13:01:04.646Z,77.73
2018-02-09T13:03:33.039Z,63.93
2018-02-09T13:06:01.419Z,74.63
2018-02-09T13:08:29.815Z,66.53
2018-02-09T13:10:58.250Z,66.83
2018-02-09T13:13:26.653Z,63.27
2018-02-09T13:15:55.027Z,63.50
2018-02-09T13:18:35.892Z,72.30
2018-02-09T13:21:04.297Z,74.60
2018-02-09T13:23:44.655Z,67.47
2018-02-09T13:26:13.075Z,65.18
2018-02-09T13:28:53.261Z,73.80
2018-02-09T13:31:21.767Z,70.50
2018-02-09T13:33:50.147Z,91.43
2018-02-09T13:36:18.573Z,68.60
2018-02-09T13:38:46.988Z,71.05
2018-02-09T13:41:15.395Z,72.53
2018-02-09T13:43:43.803Z,82.53
2018-02-09T13:46:12.253Z,86.10
2018-02-09T13:48:40.658Z,79.47
2018-02-09T13:51:09.047Z,80.43
2018-02-09T13:53:37.438Z,79.87
2018-02-09T13:56:05.852Z,84.65
2018-02-09T13:58:34.305Z,78.37
2018-02-09T14:01:02.696Z,87.45
2018-02-09T14:03:32.070Z,86.32
2018-02-09T14:06:00.427Z,85.85
2018-02-09T14:08:28.826Z,84.05
2018-02-09T14:10:57.370Z,89.28
2018-02-09T14:13:25.775Z,86.32
2018-02-09T14:15:54.770Z,93.97
2018-02-09T14:18:23.165Z,89.68
2018-02-09T14:20:51.677Z,91.03
2018-02-09T14:23:20.141Z,89.93
2018-02-09T14:25:48.518Z,87.15
2018-02-09T14:28:17.000Z,83.28
2018-02-09T14:30:45.391Z,82.47
2018-02-09T14:33:13.801Z,91.15
2018-02-09T14:35:42.211Z,88.68
2018-02-09T14:38:10.610Z,87.65
2018-02-09T14:40:39.267Z,89.82
2018-02-09T14:43:07.671Z,91.05
2018-02-09T14:45:36.153Z,94.47
2018-02-09T14:48:04.549Z,96.80
2018-02-09T14:50:33.079Z,87.12
2018-02-09T14:53:01.509Z,98.65
2018-02-09T14:55:30.010Z,87.62
2018-02-09T14:57:58.521Z,92.88
2018-02-09T15:00:26.918Z,86.03
2018-02-09T15:02:55.395Z,83.30
2018-02-09T15:05:23.832Z,89.05
2018-02-09T15:07:52.226Z,84.97
2018-02-09T15:10:20.982Z,90.05
2018-02-09T15:12:49.404Z,88.10
2018-02-09T15:15:17.813Z,92.15
2018-02-09T15:17:46.195Z,81.90
2018-02-09T15:20:14.607Z,83.18
2018-02-09T15:22:43.098Z,89.72
2018-02-09T15:25:11.581Z,87.85
2018-02-09T15:27:40.040Z,88.70
2018-02-09T15:30:08.446Z,90.28
2018-02-09T15:32:36.890Z,87.85
2018-02-09T15:35:05.474Z,84.97
2018-02-09T15:37:33.880Z,107.50
2018-02-09T15:40:02.291Z,85.97
2018-02-09T15:42:30.671Z,90.78
2018-02-09T15:44:59.116Z,93.20
2018-02-09T15:47:27.519Z,102.50
2018-02-09T15:49:55.900Z,105.90
2018-02-09T15:52:25.071Z,114.12
2018-02-09T15:54:53.480Z,99.62
2018-02-09T15:57:21.869Z,92.93
2018-02-09T15:59:50.260Z,111.50
2018-02-09T16:02:18.664Z,95.43
2018-02-09T16:04:47.110Z,111.68
2018-02-09T16:07:15.510Z,119.20
2018-02-09T16:09:44.396Z,102.40
2018-02-09T16:12:12.793Z,117.43
2018-02-09T16:14:41.219Z,105.43
2018-02-09T16:17:09.630Z,102.72
2018-02-09T16:19:38.024Z,109.18
2018-02-09T16:22:06.485Z,95.55
2018-02-09T16:24:34.895Z,105.15
2018-02-09T16:27:03.388Z,118.45
2018-02-09T16:29:31.795Z,111.10
2018-02-09T16:32:00.219Z,114.47
2018-02-09T16:34:28.658Z,106.18
2018-02-09T16:36:57.044Z,118.97
2018-02-09T16:39:25.525Z,106.90
2018-02-09T16:41:53.932Z,101.28
2018-02-09T16:44:22.330Z,109.12
2018-02-09T16:46:50.742Z,95.35
2018-02-09T16:49:19.170Z,110.72
2018-02-09T16:51:47.661Z,108.47
2018-02-09T16:54:16.023Z,103.78
2018-02-09T16:56:44.419Z,100.32
2018-02-09T16:59:12.901Z,99.20
2018-02-09T17:01:41.291Z,88.22
2018-02-09T17:04:09.730Z,105.43
2018-02-09T17:06:38.104Z,100.03
2018-02-09T17:09:06.493Z,107.05
2018-02-09T17:11:34.943Z,115.93
2018-02-09T17:14:03.470Z,96.00
2018-02-09T17:16:31.866Z,100.10
2018-02-09T17:19:00.375Z,107.32
2018-02-09T17:21:28.767Z,94.15
2018-02-09T17:23:57.193Z,86.55
2018-02-09T17:26:25.583Z,86.55
2018-02-09T17:28:54.104Z,76.00
2018-02-09T17:31:22.584Z,80.72
2018-02-09T17:33:51.129Z,75.68
2018-02-09T17:36:19.583Z,74.75
2018-02-09T17:38:47.995Z,67.78
2018-02-09T17:41:16.566Z,79.68
2018-02-09T17:43:44.935Z,80.57
2018-02-09T17:46:13.286Z,69.82
2018-02-09T17:48:41.822Z,72.75
2018-02-09T17:51:10.195Z,65.10
2018-02-09T17:53:38.602Z,62.75
2018-02-09T17:56:07.025Z,73.70
2018-02-09T17:58:35.472Z,60.60
2018-02-09T18:01:03.947Z,60.47
2018-02-09T18:03:32.353Z,73.18
2018-02-09T18:06:00.743Z,65.57
2018-02-09T18:08:29.160Z,61.83
2018-02-09T18:10:57.744Z,70.15
2018-02-09T18:13:26.142Z,66.18
2018-02-09T18:15:54.626Z,62.22
2018-02-09T18:18:23.013Z,58.20
2018-02-09T18:20:51.457Z,60.33
2018-02-09T18:23:19.879Z,59.00
2018-02-09T18:25:48.265Z,69.15
2018-02-09T18:28:16.685Z,60.38
2018-02-09T18:30:45.064Z,67.20
2018-02-09T18:33:13.479Z,68.03
2018-02-09T18:35:41.858Z,56.92
2018-02-09T18:38:10.272Z,58.72
2018-02-09T18:40:38.728Z,58.20
2018-02-09T18:43:07.109Z,75.03
2018-02-09T18:45:35.526Z,61.30
2018-02-09T18:48:03.931Z,63.25
2018-02-09T18:50:32.326Z,50.75
2018-02-09T18:53:01.125Z,58.87
2018-02-09T18:55:29.540Z,62.50
2018-02-09T18:57:58.123Z,59.63
2018-02-09T19:00:26.513Z,50.78
2018-02-09T19:02:54.917Z,57.25
2018-02-09T19:05:23.386Z,51.72
2018-02-09T19:07:51.795Z,62.45
2018-02-09T19:10:20.298Z,54.22
2018-02-09T19:12:48.729Z,52.95
2018-02-09T19:15:17.118Z,51.20
2018-02-09T19:17:45.951Z,62.25
2018-02-09T19:20:14.443Z,61.63
2018-02-09T19:22:42.849Z,56.55
2018-02-09T19:25:11.301Z,59.33
2018-02-09T19:27:39.719Z,63.63
2018-02-09T19:30:08.191Z,61.50
2018-02-09T19:32:36.734Z,52.88
2018-02-09T19:35:05.169Z,48.70
2018-02-09T19:37:33.554Z,46.28
2018-02-09T19:40:02.010Z,57.90
2018-02-09T19:42:30.421Z,55.03
2018-02-09T19:44:58.856Z,58.40
2018-02-09T19:47:27.233Z,53.47
2018-02-09T19:49:55.602Z,46.50
2018-02-09T19:52:24.043Z,59.33
2018-02-09T19:54:52.430Z,56.72
2018-02-09T19:57:20.826Z,45.90
2018-02-09T19:59:49.237Z,58.65
2018-02-09T20:02:17.662Z,54.10
2018-02-09T20:04:46.202Z,50.10
2018-02-09T20:07:14.611Z,51.15
2018-02-09T20:09:43.039Z,50.12
2018-02-09T20:12:11.450Z,48.45
2018-02-09T20:14:39.926Z,42.25
2018-02-09T20:17:08.454Z,53.25
2018-02-09T20:19:36.863Z,52.90
2018-02-09T20:22:05.349Z,46.78
2018-02-09T20:24:33.718Z,41.90
2018-02-09T20:27:02.307Z,45.90
2018-02-09T20:29:30.744Z,43.03
2018-02-09T20:31:59.168Z,49.35
2018-02-09T20:34:27.628Z,41.20
2018-02-09T20:36:56.040Z,38.58
2018-02-09T20:39:24.526Z,40.83
2018-02-09T20:41:53.029Z,48.75
2018-02-09T20:44:21.409Z,43.42
2018-02-09T20:46:49.806Z,45.88
2018-02-09T20:49:18.227Z,49.85
2018-02-09T20:51:46.699Z,44.72
2018-02-09T20:54:15.109Z,47.15
2018-02-09T20:56:43.496Z,56.00
2018-02-09T20:59:11.913Z,48.08
2018-02-09T21:01:40.425Z,53.65
2018-02-09T21:04:08.866Z,46.80
2018-02-09T21:06:37.282Z,50.75
2018-02-09T21:09:05.737Z,51.10
2018-02-09T21:11:34.163Z,61.95
2018-02-09T21:14:02.557Z,53.65
2018-02-09T21:16:31.039Z,50.25
2018-02-09T21:18:59.434Z,49.42
2018-02-09T21:21:27.857Z,56.80
2018-02-09T21:23:56.346Z,39.47
2018-02-09T21:26:24.801Z,41.08
2018-02-09T21:28:53.566Z,42.62
2018-02-09T21:31:21.984Z,40.75
2018-02-09T21:33:50.453Z,45.78
2018-02-09T21:36:18.861Z,37.55
2018-02-09T21:38:47.287Z,40.12
2018-02-09T21:41:15.735Z,37.47
2018-02-09T21:43:44.139Z,31.35
2018-02-09T21:46:12.548Z,38.10
2018-02-09T21:48:40.914Z,37.67
2018-02-09T21:51:09.307Z,40.80
2018-02-09T21:53:37.766Z,41.63
2018-02-09T21:56:06.181Z,35.13
2018-02-09T21:58:34.573Z,37.58
2018-02-09T22:01:02.932Z,41.58
2018-02-09T22:03:31.293Z,38.42
2018-02-09T22:05:59.802Z,39.03
2018-02-09T22:08:28.179Z,42.40
2018-02-09T22:10:56.614Z,39.63
2018-02-09T22:13:25.000Z,36.65
2018-02-09T22:15:53.398Z,35.90
2018-02-09T22:18:21.792Z,42.50
2018-02-09T22:20:50.295Z,40.10
2018-02-09T22:23:18.730Z,46.40
2018-02-09T22:25:47.125Z,46.42
2018-02-09T22:28:15.713Z,38.75
2018-02-09T22:30:44.127Z,51.80
2018-02-09T22:33:12.521Z,47.30
2018-02-09T22:35:40.905Z,44.80
2018-02-09T22:38:09.327Z,47.33
2018-02-09T22:40:37.787Z,47.45
2018-02-09T22:43:06.211Z,46.03
2018-02-09T22:45:34.623Z,48.50
2018-02-09T22:48:03.040Z,45.10
2018-02-09T22:50:31.525Z,48.40
2018-02-09T22:53:00.026Z,47.35
2018-02-09T22:55:28.403Z,45.00
2018-02-09T22:57:56.835Z,55.53
2018-02-09T23:00:25.332Z,51.45
2018-02-09T23:02:53.726Z,40.78
2018-02-09T23:05:22.184Z,42.30
2018-02-09T23:07:50.664Z,52.90
2018-02-09T23:10:19.067Z,44.60
2018-02-09T23:12:47.459Z,51.25
2018-02-09T23:15:15.863Z,42.10
2018-02-09T23:17:44.340Z,53.42
2018-02-09T23:20:12.820Z,46.53
2018-02-09T23:22:41.205Z,45.70
2018-02-09T23:25:09.624Z,60.60
2018-02-09T23:27:38.041Z,51.05
2018-02-09T23:30:06.487Z,43.22
2018-02-09T23:32:34.891Z,43.03
2018-02-09T23:35:03.439Z,43.47
2018-02-09T23:37:31.832Z,62.78
2018-02-09T23:40:00.235Z,52.67
2018-02-09T23:42:28.639Z,47.92
2018-02-09T23:44:57.032Z,45.85
2018-02-09T23:47:25.478Z,50.92
2018-02-09T23:49:53.880Z,50.90
2018-02-09T23:52:22.366Z,46.35
2018-02-09T23:54:50.782Z,44.08
2018-02-09T23:57:19.258Z,43.83
2018-02-09T23:59:47.761Z,53.17
